Wallops Island, Virginia
Current Conditions -  °F | °C
As of 2:54 PM on Thursday 23 Oct 2014 (Local Time) from KWAL Reporting Station
Overcast Overcast  
Wind Chill: 60°   Ceiling: 3000
Heat Index: 60°   Visibility: 10mi
Dew Point: 47°   Wind: 18mph
Humidity: 62%   Direction: 330°NNW
Pressure: 29.79"   Gusts: 26mph
Location:  37.94°N, 75.46°W
Report Text: KWAL 231854Z 33016G23KT 10SM BKN030 OVC040 16/08 A2979 RMK AO2 SLP086 T01560083
Loading
Personal Weather Stations






























Interactive Weather Map New forecast layout! Learn more

10-Day Weather Forecast

Advertisements
Track Severe Weather on mobile